Time;durP1;ratioP1;P1;durP2;ratioP2;P2;SDS_P1;SDS_P2;PMS_P1;PMS_P2;Temp;Humidity;BMP_temperature;BMP_pressure;BME280_temperature;BME280_humidity;BME280_pressure;Samples;Min_cycle;Max_cycle;Signal;HPM_P1;HPM_P2
2023/06/09 00:01:53;;;;;;;10.10;3.75;;;;;;;;;;4972252;28;20157;-70
2023/06/09 00:04:20;;;;;;;19.60;5.10;;;;;;;;;;4991245;28;20037;-70
2023/06/09 00:06:46;;;;;;;14.75;4.78;;;;;;;;;;4993131;28;20377;-70
2023/06/09 00:09:13;;;;;;;11.23;3.80;;;;;;;;;;4972744;28;20037;-70
2023/06/09 00:11:39;;;;;;;9.77;4.35;;;;;;;;;;4973047;28;20452;-70
2023/06/09 00:14:05;;;;;;;22.88;5.25;;;;;;;;;;4973492;28;20026;-70
2023/06/09 00:16:31;;;;;;;18.05;5.13;;;;;;;;;;4973469;28;20090;-70
2023/06/09 00:19:01;;;;;;;8.27;4.43;;;;;;;;;;4973046;28;20027;-70
2023/06/09 00:21:27;;;;;;;11.77;3.55;;;;;;;;;;4968753;28;20102;-70
2023/06/09 00:23:55;;;;;;;10.52;4.25;;;;;;;;;;4973894;28;20107;-72
2023/06/09 00:26:21;;;;;;;9.95;4.53;;;;;;;;;;4973582;28;20037;-70
2023/06/09 00:28:47;;;;;;;7.15;3.50;;;;;;;;;;4972838;28;20023;-70
2023/06/09 00:31:13;;;;;;;5.80;3.45;;;;;;;;;;4971766;28;20038;-70
2023/06/09 00:33:39;;;;;;;8.70;4.05;;;;;;;;;;4971808;28;20100;-70
2023/06/09 00:36:05;;;;;;;7.18;3.92;;;;;;;;;;4971897;28;20066;-70
2023/06/09 00:38:31;;;;;;;10.07;3.30;;;;;;;;;;4973010;28;20035;-70
2023/06/09 00:40:57;;;;;;;11.45;3.78;;;;;;;;;;4971964;28;20558;-70
2023/06/09 00:43:22;;;;;;;7.88;4.00;;;;;;;;;;4972142;28;20031;-71
2023/06/09 00:45:49;;;;;;;7.88;3.90;;;;;;;;;;4971901;28;20038;-70
2023/06/09 00:48:15;;;;;;;10.13;5.18;;;;;;;;;;4972740;28;20033;-70
2023/06/09 00:50:41;;;;;;;10.35;3.97;;;;;;;;;;4971570;28;20034;-71
2023/06/09 00:53:09;;;;;;;6.95;4.22;;;;;;;;;;4971860;28;20377;-70
2023/06/09 00:55:40;;;;;;;9.27;4.32;;;;;;;;;;4977460;28;20122;-70
2023/06/09 00:58:07;;;;;;;7.88;4.18;;;;;;;;;;4978701;28;20114;-70
2023/06/09 01:00:35;;;;;;;9.70;4.32;;;;;;;;;;4971306;28;20039;-70
2023/06/09 01:03:02;;;;;;;9.43;4.10;;;;;;;;;;4978027;28;20038;-70
2023/06/09 01:05:34;;;;;;;8.73;4.78;;;;;;;;;;4978211;28;20074;-70
2023/06/09 01:08:18;;;;;;;7.32;4.50;;;;;;;;;;4983570;28;20038;-70
2023/06/09 01:11:22;;;;;;;16.38;7.43;;;;;;;;;;4974562;28;20489;-70
2023/06/09 01:13:55;;;;;;;;;;;;;;;;;;4959015;28;20097;-70
2023/06/09 01:16:33;;;;;;;9.55;4.90;;;;;;;;;;5010644;28;20371;-70
2023/06/09 01:19:01;;;;;;;12.02;5.10;;;;;;;;;;4977651;28;20177;-70
2023/06/09 01:21:42;;;;;;;12.13;4.40;;;;;;;;;;4977994;28;20049;-70
2023/06/09 01:24:37;;;;;;;9.25;4.30;;;;;;;;;;4979182;28;20046;-70
2023/06/09 01:27:05;;;;;;;6.97;4.00;;;;;;;;;;4977873;28;20514;-70
2023/06/09 01:29:32;;;;;;;11.65;4.07;;;;;;;;;;4977436;28;20022;-70
2023/06/09 01:32:00;;;;;;;10.48;4.22;;;;;;;;;;4978875;28;20487;-70
2023/06/09 01:34:27;;;;;;;8.02;4.05;;;;;;;;;;4979530;28;20391;-70
2023/06/09 01:36:54;;;;;;;11.10;4.50;;;;;;;;;;4977848;28;20041;-70
2023/06/09 01:39:20;;;;;;;8.88;4.10;;;;;;;;;;4977598;28;20113;-70
2023/06/09 01:41:45;;;;;;;7.65;3.95;;;;;;;;;;4977922;28;20113;-70
2023/06/09 01:44:11;;;;;;;8.35;3.83;;;;;;;;;;4983044;28;20058;-69
2023/06/09 01:46:37;;;;;;;6.65;4.05;;;;;;;;;;4977663;28;20531;-71
2023/06/09 01:49:54;;;;;;;10.23;4.00;;;;;;;;;;4977333;28;20519;-70
2023/06/09 01:52:51;;;;;;;6.72;3.80;;;;;;;;;;4977471;28;20504;-71
2023/06/09 01:55:26;;;;;;;9.10;4.10;;;;;;;;;;4979228;28;20035;-70
2023/06/09 01:58:09;;;;;;;8.27;4.20;;;;;;;;;;4977607;28;20089;-70
2023/06/09 02:00:36;;;;;;;7.00;3.53;;;;;;;;;;4978811;28;20053;-70
2023/06/09 02:03:06;;;;;;;9.30;4.07;;;;;;;;;;4977662;28;20427;-70
2023/06/09 02:05:35;;;;;;;9.57;3.63;;;;;;;;;;4960030;28;20043;-71
2023/06/09 02:08:01;;;;;;;10.25;4.00;;;;;;;;;;4974402;28;20456;-70
2023/06/09 02:10:29;;;;;;;7.22;4.15;;;;;;;;;;4974144;28;20042;-70
2023/06/09 02:12:55;;;;;;;12.48;5.93;;;;;;;;;;4974615;28;20030;-70
2023/06/09 02:15:21;;;;;;;9.40;4.90;;;;;;;;;;4974675;28;20062;-70
2023/06/09 02:17:47;;;;;;;12.75;5.78;;;;;;;;;;4975552;28;20652;-71
2023/06/09 02:20:13;;;;;;;14.05;5.80;;;;;;;;;;4973997;28;20130;-70
2023/06/09 02:22:39;;;;;;;8.35;5.03;;;;;;;;;;4975378;28;20023;-70
2023/06/09 02:25:06;;;;;;;8.20;5.30;;;;;;;;;;4987218;28;20031;-71
2023/06/09 02:27:32;;;;;;;7.18;4.97;;;;;;;;;;4966337;28;20089;-70
2023/06/09 02:29:58;;;;;;;14.23;5.18;;;;;;;;;;4987768;28;20467;-70
2023/06/09 02:32:24;;;;;;;11.23;5.38;;;;;;;;;;4973819;28;20034;-70
2023/06/09 02:34:51;;;;;;;15.50;6.00;;;;;;;;;;5009827;28;20041;-70
2023/06/09 02:37:17;;;;;;;8.02;5.22;;;;;;;;;;4972913;28;20459;-70
2023/06/09 02:39:43;;;;;;;9.35;5.72;;;;;;;;;;4989065;28;20031;-71
2023/06/09 02:42:09;;;;;;;8.65;5.15;;;;;;;;;;4972671;28;20034;-70
2023/06/09 02:44:39;;;;;;;11.68;5.32;;;;;;;;;;4974260;28;20035;-70
2023/06/09 02:47:05;;;;;;;12.55;5.85;;;;;;;;;;5006793;28;20023;-70
2023/06/09 02:49:31;;;;;;;12.73;6.10;;;;;;;;;;4973140;28;20503;-70
2023/06/09 02:51:56;;;;;;;11.95;5.22;;;;;;;;;;4969848;28;20061;-71
2023/06/09 02:54:24;;;;;;;12.55;5.07;;;;;;;;;;4971955;28;20518;-69
2023/06/09 02:56:51;;;;;;;11.57;5.70;;;;;;;;;;4971961;28;20037;-70
2023/06/09 02:59:17;;;;;;;12.07;5.35;;;;;;;;;;4988001;28;20117;-70
2023/06/09 03:01:44;;;;;;;8.90;5.40;;;;;;;;;;4973244;28;20449;-71
2023/06/09 03:04:12;;;;;;;11.85;6.03;;;;;;;;;;4988332;28;20058;-71
2023/06/09 03:06:43;;;;;;;10.82;5.82;;;;;;;;;;4969288;28;20058;-70
2023/06/09 03:09:10;;;;;;;12.35;6.28;;;;;;;;;;4973764;28;20038;-70
2023/06/09 03:11:37;;;;;;;10.65;6.10;;;;;;;;;;4973616;28;20030;-70
2023/06/09 03:14:04;;;;;;;9.57;4.75;;;;;;;;;;4967284;28;20034;-70
2023/06/09 03:16:30;;;;;;;12.00;5.25;;;;;;;;;;4971521;28;20078;-71
2023/06/09 03:18:57;;;;;;;18.27;7.13;;;;;;;;;;4972387;28;20041;-70
2023/06/09 03:21:24;;;;;;;16.08;5.97;;;;;;;;;;4970863;28;20105;-70
2023/06/09 03:23:51;;;;;;;11.95;6.28;;;;;;;;;;5000203;28;20126;-70
2023/06/09 03:26:18;;;;;;;15.57;5.90;;;;;;;;;;4973151;28;20062;-70
2023/06/09 03:28:44;;;;;;;12.73;5.60;;;;;;;;;;4981289;28;20035;-70
2023/06/09 03:31:13;;;;;;;14.32;5.38;;;;;;;;;;4973046;28;20555;-70
2023/06/09 03:33:41;;;;;;;12.27;6.10;;;;;;;;;;4972968;28;20034;-70
2023/06/09 03:36:08;;;;;;;15.85;5.60;;;;;;;;;;5004950;28;20119;-70
2023/06/09 03:38:35;;;;;;;10.35;6.22;;;;;;;;;;4972734;28;20035;-71
2023/06/09 03:41:02;;;;;;;14.20;5.72;;;;;;;;;;4972639;28;20369;-70
2023/06/09 03:43:28;;;;;;;11.77;5.88;;;;;;;;;;4972367;28;20050;-70
2023/06/09 03:45:55;;;;;;;10.23;4.97;;;;;;;;;;4972344;28;20038;-70
2023/06/09 03:48:21;;;;;;;10.93;5.78;;;;;;;;;;4972300;28;20034;-70
2023/06/09 03:50:48;;;;;;;12.13;5.40;;;;;;;;;;4972249;28;20033;-70
2023/06/09 03:53:15;;;;;;;10.50;5.63;;;;;;;;;;4988687;28;20496;-70
2023/06/09 03:55:41;;;;;;;11.93;6.00;;;;;;;;;;4972606;28;20031;-71
2023/06/09 03:58:08;;;;;;;12.73;5.97;;;;;;;;;;4972216;28;20445;-70
2023/06/09 04:00:35;;;;;;;15.32;5.85;;;;;;;;;;4972283;28;20108;-70
2023/06/09 04:03:01;;;;;;;16.00;5.78;;;;;;;;;;4988478;28;20535;-70
2023/06/09 04:05:28;;;;;;;13.57;5.13;;;;;;;;;;4970729;28;20499;-70
2023/06/09 04:07:54;;;;;;;10.80;5.25;;;;;;;;;;4988099;28;20066;-70
2023/06/09 04:10:20;;;;;;;10.00;4.85;;;;;;;;;;4971997;28;20508;-70
2023/06/09 04:12:48;;;;;;;8.55;5.32;;;;;;;;;;4971771;28;20400;-71
2023/06/09 04:15:13;;;;;;;14.77;5.60;;;;;;;;;;4971761;28;20023;-70
2023/06/09 04:17:42;;;;;;;12.93;5.63;;;;;;;;;;4971734;28;20527;-70
2023/06/09 04:20:10;;;;;;;10.75;5.10;;;;;;;;;;4971873;28;20045;-69
2023/06/09 04:22:52;;;;;;;12.18;5.00;;;;;;;;;;4987972;28;20118;-70
2023/06/09 04:25:27;;;;;;;14.45;5.90;;;;;;;;;;4987705;28;20095;-71
2023/06/09 04:27:56;;;;;;;16.92;7.03;;;;;;;;;;4971713;28;20039;-70
2023/06/09 04:30:25;;;;;;;12.93;5.05;;;;;;;;;;4971051;28;20485;-70
2023/06/09 04:32:53;;;;;;;9.35;4.40;;;;;;;;;;4963793;28;20118;-70
2023/06/09 04:35:23;;;;;;;8.63;4.85;;;;;;;;;;4971430;28;20026;-70
2023/06/09 04:37:49;;;;;;;13.75;4.57;;;;;;;;;;4951808;29;20043;-70
2023/06/09 04:40:21;;;;;;;12.07;5.18;;;;;;;;;;4951892;29;20601;-69
2023/06/09 04:42:51;;;;;;;10.98;4.65;;;;;;;;;;4968133;28;20035;-70
2023/06/09 04:45:20;;;;;;;14.65;4.70;;;;;;;;;;4968307;28;20031;-70
2023/06/09 04:47:48;;;;;;;18.33;5.72;;;;;;;;;;4952274;29;20039;-70
2023/06/09 04:50:15;;;;;;;17.77;5.50;;;;;;;;;;4954305;28;20047;-73
2023/06/09 04:52:44;;;;;;;9.80;5.13;;;;;;;;;;4952388;29;20039;-72
2023/06/09 04:55:12;;;;;;;10.20;4.53;;;;;;;;;;4968312;28;20458;-73
2023/06/09 04:57:39;;;;;;;8.60;4.15;;;;;;;;;;4970846;28;20101;-75
2023/06/09 05:00:18;;;;;;;6.47;4.15;;;;;;;;;;4972376;28;20480;-75
2023/06/09 05:02:46;;;;;;;9.98;4.75;;;;;;;;;;4971945;28;20085;-75
2023/06/09 05:05:15;;;;;;;11.18;5.13;;;;;;;;;;4974356;28;20022;-75
2023/06/09 05:07:41;;;;;;;12.57;5.32;;;;;;;;;;4992904;28;20034;-74
2023/06/09 05:10:08;;;;;;;8.85;5.00;;;;;;;;;;4976159;28;20023;-76
2023/06/09 05:12:38;;;;;;;9.15;5.35;;;;;;;;;;4975816;28;20066;-75
2023/06/09 05:15:06;;;;;;;11.63;5.78;;;;;;;;;;4973717;28;20583;-74
2023/06/09 05:17:33;;;;;;;13.82;5.70;;;;;;;;;;4989525;28;20092;-75
2023/06/09 05:20:08;;;;;;;9.63;5.07;;;;;;;;;;4972397;28;20118;-75
2023/06/09 05:22:35;;;;;;;9.05;5.35;;;;;;;;;;4972515;28;20124;-73
2023/06/09 05:25:05;;;;;;;10.75;5.68;;;;;;;;;;4971462;28;20117;-73
2023/06/09 05:27:32;;;;;;;9.57;5.50;;;;;;;;;;4987127;28;20039;-73
2023/06/09 05:29:58;;;;;;;13.30;5.50;;;;;;;;;;4970972;28;20027;-74
2023/06/09 05:32:25;;;;;;;15.50;5.95;;;;;;;;;;4987251;28;20158;-74
2023/06/09 05:34:51;;;;;;;11.07;5.80;;;;;;;;;;4987650;28;20085;-73
2023/06/09 05:37:17;;;;;;;11.48;5.95;;;;;;;;;;4971738;28;20265;-74
2023/06/09 05:39:45;;;;;;;10.15;5.82;;;;;;;;;;4970978;28;20030;-73
2023/06/09 05:42:12;;;;;;;15.15;5.97;;;;;;;;;;4974540;28;20047;-73
2023/06/09 05:44:38;;;;;;;21.38;7.80;;;;;;;;;;4976998;28;20027;-73
2023/06/09 05:47:06;;;;;;;15.07;6.90;;;;;;;;;;4977019;28;20038;-73
2023/06/09 05:49:32;;;;;;;17.15;7.20;;;;;;;;;;4976123;28;20023;-73
2023/06/09 05:51:57;;;;;;;11.65;5.88;;;;;;;;;;4975939;28;20045;-73
2023/06/09 05:54:24;;;;;;;12.40;6.68;;;;;;;;;;4976889;28;20027;-74
2023/06/09 05:56:51;;;;;;;11.25;5.72;;;;;;;;;;4975190;28;20129;-73
2023/06/09 05:59:20;;;;;;;12.20;5.93;;;;;;;;;;4977753;28;20051;-75
2023/06/09 06:01:50;;;;;;;12.60;5.57;;;;;;;;;;4976016;28;20050;-74
2023/06/09 06:04:16;;;;;;;13.02;6.25;;;;;;;;;;4976044;28;20085;-75
2023/06/09 06:06:42;;;;;;;12.65;5.22;;;;;;;;;;4975453;28;20051;-73
2023/06/09 06:09:08;;;;;;;8.63;4.85;;;;;;;;;;4975027;28;20043;-73
2023/06/09 06:11:34;;;;;;;10.23;5.70;;;;;;;;;;4976930;28;20027;-72
2023/06/09 06:14:00;;;;;;;10.80;4.93;;;;;;;;;;4976044;28;20042;-73
2023/06/09 06:16:26;;;;;;;11.82;4.80;;;;;;;;;;4975655;28;20105;-73
2023/06/09 06:18:51;;;;;;;11.32;5.05;;;;;;;;;;4989504;28;20041;-74
2023/06/09 06:21:18;;;;;;;6.78;4.00;;;;;;;;;;4975209;28;20031;-74
2023/06/09 06:23:44;;;;;;;11.02;6.30;;;;;;;;;;4975236;28;20118;-74
2023/06/09 06:26:10;;;;;;;8.07;4.15;;;;;;;;;;4975223;28;20034;-73
2023/06/09 06:28:36;;;;;;;9.38;4.22;;;;;;;;;;4973619;28;20089;-75
2023/06/09 06:31:02;;;;;;;11.55;4.15;;;;;;;;;;4974782;28;20026;-73
2023/06/09 06:33:29;;;;;;;11.68;4.30;;;;;;;;;;4974132;28;20110;-75
2023/06/09 06:35:56;;;;;;;6.50;4.05;;;;;;;;;;4972545;28;20069;-74
2023/06/09 06:38:22;;;;;;;11.75;4.47;;;;;;;;;;4974162;28;20290;-76
2023/06/09 06:40:50;;;;;;;7.30;3.92;;;;;;;;;;4974620;28;20584;-74
2023/06/09 06:43:15;;;;;;;14.13;5.50;;;;;;;;;;4975091;28;20069;-74
2023/06/09 06:46:01;;;;;;;7.53;3.95;;;;;;;;;;4972719;28;20390;-75
2023/06/09 06:48:28;;;;;;;5.65;4.03;;;;;;;;;;4976632;28;20416;-76
2023/06/09 06:50:54;;;;;;;8.65;3.67;;;;;;;;;;4969289;28;20142;-78
2023/06/09 06:53:19;;;;;;;7.22;3.92;;;;;;;;;;4972503;28;20496;-76
2023/06/09 06:55:46;;;;;;;8.32;4.15;;;;;;;;;;4989727;28;20034;-75
2023/06/09 06:58:13;;;;;;;6.97;4.00;;;;;;;;;;4974792;28;20384;-77
2023/06/09 07:00:39;;;;;;;9.15;4.40;;;;;;;;;;4973338;28;20440;-77
2023/06/09 07:03:04;;;;;;;8.35;3.78;;;;;;;;;;4974664;28;20065;-77
2023/06/09 07:05:30;;;;;;;13.70;4.97;;;;;;;;;;4974425;28;20030;-76
2023/06/09 07:07:56;;;;;;;8.27;4.25;;;;;;;;;;4974039;28;20042;-77
2023/06/09 07:10:22;;;;;;;7.43;3.97;;;;;;;;;;4973215;28;20023;-76
2023/06/09 07:12:48;;;;;;;11.55;4.32;;;;;;;;;;4988455;28;20404;-76
2023/06/09 07:15:13;;;;;;;6.28;3.63;;;;;;;;;;4974307;28;20499;-78
2023/06/09 07:17:39;;;;;;;9.23;3.30;;;;;;;;;;4970544;28;20122;-75
2023/06/09 07:20:06;;;;;;;8.90;3.85;;;;;;;;;;4972939;28;20030;-77
2023/06/09 07:22:34;;;;;;;9.82;3.88;;;;;;;;;;4973871;28;20178;-77
2023/06/09 07:25:00;;;;;;;9.85;4.00;;;;;;;;;;4956623;28;20522;-77
2023/06/09 07:27:26;;;;;;;9.07;3.90;;;;;;;;;;4973977;28;20045;-77
2023/06/09 07:29:54;;;;;;;8.27;3.70;;;;;;;;;;4974364;28;20022;-76
2023/06/09 07:32:21;;;;;;;6.72;3.78;;;;;;;;;;4971772;28;20043;-78
2023/06/09 07:34:48;;;;;;;8.07;4.57;;;;;;;;;;4969107;28;20472;-76
2023/06/09 07:37:15;;;;;;;9.05;3.70;;;;;;;;;;4973044;28;20062;-77
2023/06/09 07:39:41;;;;;;;10.23;4.07;;;;;;;;;;4973266;28;20030;-75
2023/06/09 07:42:06;;;;;;;7.57;4.15;;;;;;;;;;4972066;28;20062;-76
2023/06/09 07:44:32;;;;;;;11.85;4.55;;;;;;;;;;4973585;28;20065;-75
2023/06/09 07:46:59;;;;;;;7.40;3.20;;;;;;;;;;4988009;28;20035;-79
2023/06/09 07:49:26;;;;;;;6.50;3.50;;;;;;;;;;4972775;28;20035;-75
2023/06/09 07:51:52;;;;;;;7.95;3.75;;;;;;;;;;4973475;28;20038;-77
2023/06/09 07:54:18;;;;;;;6.57;4.18;;;;;;;;;;4973094;28;20073;-76
2023/06/09 07:56:48;;;;;;;6.72;4.32;;;;;;;;;;4973103;28;20484;-78
2023/06/09 07:59:18;;;;;;;9.45;3.97;;;;;;;;;;4973534;28;20081;-77
2023/06/09 08:01:46;;;;;;;8.20;3.92;;;;;;;;;;4971479;28;20100;-75
2023/06/09 08:04:13;;;;;;;8.75;3.80;;;;;;;;;;4972222;28;20019;-76
2023/06/09 08:06:39;;;;;;;7.55;4.25;;;;;;;;;;4973954;28;20113;-73
2023/06/09 08:09:05;;;;;;;10.73;4.32;;;;;;;;;;4956356;28;20063;-75
2023/06/09 08:11:31;;;;;;;6.97;3.75;;;;;;;;;;4972985;28;20039;-75
2023/06/09 08:13:57;;;;;;;7.80;3.65;;;;;;;;;;4972395;28;20027;-78
2023/06/09 08:16:24;;;;;;;7.80;4.00;;;;;;;;;;4972896;28;20492;-76
2023/06/09 08:18:49;;;;;;;9.43;3.65;;;;;;;;;;4974641;28;20026;-76
2023/06/09 08:21:17;;;;;;;8.45;4.05;;;;;;;;;;4977082;28;20465;-78
2023/06/09 08:23:44;;;;;;;9.48;3.97;;;;;;;;;;4992385;28;20110;-78
2023/06/09 08:26:10;;;;;;;7.75;3.15;;;;;;;;;;5010227;28;20072;-77
2023/06/09 08:28:36;;;;;;;8.02;3.67;;;;;;;;;;4992438;28;20049;-77
2023/06/09 08:31:04;;;;;;;6.43;3.47;;;;;;;;;;4994700;28;20098;-77
2023/06/09 08:33:35;;;;;;;7.53;3.55;;;;;;;;;;4991323;28;20030;-76
2023/06/09 08:36:03;;;;;;;14.57;4.18;;;;;;;;;;4992776;28;20038;-77
2023/06/09 08:38:33;;;;;;;5.63;3.28;;;;;;;;;;4993183;28;20049;-76
2023/06/09 08:41:09;;;;;;;8.15;4.13;;;;;;;;;;4995101;28;20034;-77
2023/06/09 08:43:37;;;;;;;9.43;3.90;;;;;;;;;;4993391;28;20038;-78
2023/06/09 08:46:09;;;;;;;6.85;3.30;;;;;;;;;;5024506;28;20030;-76
2023/06/09 08:48:41;;;;;;;3.92;3.25;;;;;;;;;;4994811;28;20041;-78
2023/06/09 08:51:10;;;;;;;10.57;3.35;;;;;;;;;;5007786;28;20046;-77
2023/06/09 08:53:37;;;;;;;8.57;3.22;;;;;;;;;;4994919;28;20018;-77
2023/06/09 08:56:05;;;;;;;7.32;3.25;;;;;;;;;;5008646;28;20065;-78
2023/06/09 08:58:31;;;;;;;5.30;3.15;;;;;;;;;;5007493;28;20058;-77
2023/06/09 09:00:57;;;;;;;7.50;3.45;;;;;;;;;;4991084;28;20365;-77
2023/06/09 09:03:23;;;;;;;7.22;3.45;;;;;;;;;;4988454;28;20033;-76
2023/06/09 09:05:49;;;;;;;6.50;3.78;;;;;;;;;;4989623;28;20450;-77
2023/06/09 09:08:14;;;;;;;11.00;3.88;;;;;;;;;;4990990;28;20076;-76
2023/06/09 09:10:41;;;;;;;10.05;4.13;;;;;;;;;;4974574;28;20077;-76
2023/06/09 09:13:10;;;;;;;5.07;3.53;;;;;;;;;;4969795;28;20035;-78
2023/06/09 09:15:37;;;;;;;6.45;3.10;;;;;;;;;;4971269;28;20465;-76
2023/06/09 09:18:13;;;;;;;8.15;3.70;;;;;;;;;;4978172;28;20023;-79
2023/06/09 09:20:41;;;;;;;6.97;3.50;;;;;;;;;;4974436;28;20455;-77
2023/06/09 09:23:07;;;;;;;4.82;3.13;;;;;;;;;;4974647;28;20037;-76
2023/06/09 09:25:33;;;;;;;8.68;3.55;;;;;;;;;;4975631;28;20031;-77
2023/06/09 09:28:06;;;;;;;5.05;2.90;;;;;;;;;;4976522;28;20054;-77
2023/06/09 09:30:52;;;;;;;;;;;;;;;;;;4991404;28;20576;-76
2023/06/09 09:33:20;;;;;;;5.78;3.17;;;;;;;;;;4975516;28;20013;-76
2023/06/09 09:35:49;;;;;;;6.75;3.20;;;;;;;;;;4976033;28;20061;-77
2023/06/09 09:38:17;;;;;;;6.40;3.40;;;;;;;;;;4976699;28;20035;-75
2023/06/09 09:40:45;;;;;;;5.10;3.30;;;;;;;;;;4992500;28;20421;-78
2023/06/09 09:43:12;;;;;;;4.20;3.13;;;;;;;;;;4977667;28;20493;-76
2023/06/09 09:45:42;;;;;;;4.90;3.00;;;;;;;;;;4976831;28;20101;-76
2023/06/09 09:48:15;;;;;;;6.13;3.13;;;;;;;;;;4974352;28;20206;-76
2023/06/09 09:50:43;;;;;;;6.85;3.08;;;;;;;;;;4995115;28;20068;-77
2023/06/09 09:53:09;;;;;;;4.57;3.05;;;;;;;;;;4994412;28;20065;-76
2023/06/09 09:55:42;;;;;;;5.07;3.03;;;;;;;;;;4993738;28;20038;-77
2023/06/09 09:58:09;;;;;;;6.97;3.30;;;;;;;;;;4974931;28;20038;-76
2023/06/09 10:00:37;;;;;;;4.93;3.05;;;;;;;;;;4974965;28;20037;-76
2023/06/09 10:03:19;;;;;;;4.60;3.05;;;;;;;;;;4974706;28;20472;-75
2023/06/09 10:05:47;;;;;;;7.25;2.45;;;;;;;;;;4975331;28;20426;-75
2023/06/09 10:08:19;;;;;;;5.45;2.65;;;;;;;;;;4975088;28;20026;-74
2023/06/09 10:10:47;;;;;;;3.55;2.60;;;;;;;;;;4974887;28;20035;-76
2023/06/09 10:13:15;;;;;;;6.35;2.95;;;;;;;;;;4974944;28;20047;-74
2023/06/09 10:15:45;;;;;;;8.45;3.00;;;;;;;;;;4973888;28;20514;-77
2023/06/09 10:18:12;;;;;;;6.15;3.67;;;;;;;;;;4973763;28;20053;-77
2023/06/09 10:20:42;;;;;;;7.93;3.38;;;;;;;;;;4975506;28;20025;-76
2023/06/09 10:23:08;;;;;;;6.32;3.35;;;;;;;;;;4973449;28;20054;-75
2023/06/09 10:25:34;;;;;;;8.73;3.00;;;;;;;;;;4989549;28;20030;-77
2023/06/09 10:28:00;;;;;;;7.80;3.40;;;;;;;;;;4973803;28;20546;-76
2023/06/09 10:30:26;;;;;;;7.30;3.33;;;;;;;;;;4973801;28;20038;-76
2023/06/09 10:32:58;;;;;;;8.32;3.28;;;;;;;;;;4973965;28;20081;-76
2023/06/09 10:35:27;;;;;;;7.35;3.70;;;;;;;;;;4972961;28;20410;-77
2023/06/09 10:37:56;;;;;;;10.02;4.18;;;;;;;;;;4974969;28;20034;-79
2023/06/09 10:40:25;;;;;;;6.97;3.08;;;;;;;;;;4974678;28;20031;-76
2023/06/09 10:43:03;;;;;;;5.10;3.40;;;;;;;;;;4975039;28;20018;-76
2023/06/09 10:45:51;;;;;;;6.93;3.90;;;;;;;;;;4974875;28;20034;-76
2023/06/09 10:48:42;;;;;;;6.00;3.40;;;;;;;;;;4974667;28;20089;-76
2023/06/09 10:51:26;;;;;;;4.13;3.17;;;;;;;;;;4975142;28;20123;-76
2023/06/09 10:54:07;;;;;;;7.20;3.60;;;;;;;;;;4974992;28;20046;-76
2023/06/09 10:56:53;;;;;;;6.10;3.17;;;;;;;;;;4975051;28;20038;-76
2023/06/09 10:59:30;;;;;;;5.50;3.38;;;;;;;;;;4974555;28;20073;-76
2023/06/09 11:02:11;;;;;;;6.97;3.55;;;;;;;;;;4974262;28;20489;-75
2023/06/09 11:04:46;;;;;;;4.97;3.20;;;;;;;;;;4973996;28;20175;-75
2023/06/09 11:07:17;;;;;;;5.60;3.50;;;;;;;;;;4975133;28;20057;-75
2023/06/09 11:09:51;;;;;;;7.38;3.33;;;;;;;;;;4974702;28;20399;-75
2023/06/09 11:12:49;;;;;;;4.75;3.25;;;;;;;;;;4974829;28;20034;-75
2023/06/09 11:15:16;;;;;;;7.10;3.20;;;;;;;;;;4972477;28;20101;-77
2023/06/09 11:17:44;;;;;;;5.80;3.30;;;;;;;;;;4975457;28;20061;-74
2023/06/09 11:20:10;;;;;;;9.38;3.78;;;;;;;;;;4974513;28;20042;-76
2023/06/09 11:22:41;;;;;;;7.95;3.70;;;;;;;;;;4974611;28;20023;-75
2023/06/09 11:25:08;;;;;;;6.95;3.50;;;;;;;;;;4974373;28;20061;-74
2023/06/09 11:27:34;;;;;;;9.85;3.40;;;;;;;;;;4974297;28;20034;-74
2023/06/09 11:30:28;;;;;;;8.23;3.58;;;;;;;;;;4973900;28;20333;-74
2023/06/09 11:33:05;;;;;;;;;;;;;;;;;;4973233;28;20077;-75
2023/06/09 11:35:31;;;;;;;8.43;3.80;;;;;;;;;;4974215;28;19914;-75
2023/06/09 11:38:01;;;;;;;4.30;3.15;;;;;;;;;;4974545;28;20504;-74
2023/06/09 11:40:31;;;;;;;5.60;3.40;;;;;;;;;;4974128;28;20081;-75
2023/06/09 11:42:58;;;;;;;6.43;3.15;;;;;;;;;;4974192;28;20038;-75
2023/06/09 11:45:26;;;;;;;7.13;3.40;;;;;;;;;;4974510;28;20031;-76
2023/06/09 11:47:56;;;;;;;7.35;3.55;;;;;;;;;;4974211;28;20039;-75
2023/06/09 11:50:23;;;;;;;11.43;3.90;;;;;;;;;;4973773;28;20049;-75
2023/06/09 11:53:05;;;;;;;6.95;3.20;;;;;;;;;;4974110;28;20037;-74
2023/06/09 11:55:31;;;;;;;7.15;3.50;;;;;;;;;;4974637;28;20035;-75
2023/06/09 11:57:58;;;;;;;5.40;3.40;;;;;;;;;;4972938;28;20452;-75
2023/06/09 12:00:28;;;;;;;5.85;3.78;;;;;;;;;;4974002;28;20034;-75
2023/06/09 12:02:56;;;;;;;6.63;4.25;;;;;;;;;;4974339;28;20034;-76
2023/06/09 12:05:22;;;;;;;7.38;3.85;;;;;;;;;;4972572;28;20082;-74
2023/06/09 12:07:50;;;;;;;7.50;3.33;;;;;;;;;;4973622;28;20037;-75
2023/06/09 12:10:17;;;;;;;7.07;3.50;;;;;;;;;;4973766;28;20481;-75
2023/06/09 12:12:48;;;;;;;7.53;3.70;;;;;;;;;;4973887;28;20035;-76
2023/06/09 12:15:16;;;;;;;9.52;4.43;;;;;;;;;;4973001;28;20110;-75
2023/06/09 12:17:43;;;;;;;7.10;3.65;;;;;;;;;;4956981;28;20400;-75
2023/06/09 12:20:25;;;;;;;4.93;3.38;;;;;;;;;;4972988;28;20061;-74
2023/06/09 12:22:53;;;;;;;5.83;3.53;;;;;;;;;;4971866;28;20069;-76
2023/06/09 12:25:33;;;;;;;7.97;3.22;;;;;;;;;;4971533;28;20033;-75
2023/06/09 12:28:29;;;;;;;5.55;3.65;;;;;;;;;;4969819;28;20527;-76
2023/06/09 12:31:07;;;;;;;6.22;3.40;;;;;;;;;;4952909;28;20035;-76
2023/06/09 12:33:35;;;;;;;8.88;4.03;;;;;;;;;;4970708;28;20034;-77
2023/06/09 12:36:10;;;;;;;10.82;4.13;;;;;;;;;;4971032;28;20059;-76
2023/06/09 12:38:37;;;;;;;6.13;3.60;;;;;;;;;;4970387;28;20034;-76
2023/06/09 12:41:08;;;;;;;10.63;4.13;;;;;;;;;;4986134;28;20483;-76
2023/06/09 12:43:43;;;;;;;8.63;3.55;;;;;;;;;;4972244;28;20085;-77
2023/06/09 12:46:09;;;;;;;7.38;3.40;;;;;;;;;;4976638;28;20062;-77
2023/06/09 12:49:04;;;;;;;7.45;3.70;;;;;;;;;;4972992;28;20061;-78
2023/06/09 12:51:31;;;;;;;5.50;3.60;;;;;;;;;;4971462;28;20117;-77
2023/06/09 12:53:58;;;;;;;7.63;3.97;;;;;;;;;;4973176;28;20030;-76
2023/06/09 12:56:25;;;;;;;6.40;3.63;;;;;;;;;;4973729;28;20401;-76
2023/06/09 12:58:51;;;;;;;8.90;3.42;;;;;;;;;;5004560;28;20119;-76
2023/06/09 13:01:17;;;;;;;8.75;3.50;;;;;;;;;;4979338;28;20414;-76
2023/06/09 13:03:43;;;;;;;9.38;3.90;;;;;;;;;;4984028;28;20105;-76
2023/06/09 13:06:09;;;;;;;6.72;3.30;;;;;;;;;;4981709;28;20095;-74
2023/06/09 13:08:35;;;;;;;6.28;4.00;;;;;;;;;;4981039;28;20422;-75
2023/06/09 13:11:00;;;;;;;6.30;4.10;;;;;;;;;;4981056;28;20131;-74
2023/06/09 13:13:26;;;;;;;7.00;3.28;;;;;;;;;;4985161;28;20046;-75
2023/06/09 13:15:52;;;;;;;5.28;3.40;;;;;;;;;;4975265;28;20038;-76
2023/06/09 13:18:18;;;;;;;6.90;3.30;;;;;;;;;;4971286;28;20449;-75
2023/06/09 13:20:45;;;;;;;6.93;3.53;;;;;;;;;;4971812;28;20027;-75
2023/06/09 13:23:10;;;;;;;5.18;3.38;;;;;;;;;;4971471;28;20393;-75
2023/06/09 13:25:41;;;;;;;7.13;3.70;;;;;;;;;;4970994;28;20031;-75
2023/06/09 13:28:17;;;;;;;4.30;3.38;;;;;;;;;;4972072;28;20035;-75
2023/06/09 13:30:44;;;;;;;5.00;3.30;;;;;;;;;;4971883;28;20037;-76
2023/06/09 13:33:10;;;;;;;5.78;3.50;;;;;;;;;;4970997;28;20066;-76
2023/06/09 13:35:38;;;;;;;7.18;3.33;;;;;;;;;;4973476;28;20068;-75
2023/06/09 13:38:04;;;;;;;5.53;3.15;;;;;;;;;;4972415;28;20023;-76
2023/06/09 13:40:32;;;;;;;5.95;3.58;;;;;;;;;;4972151;28;20188;-75
2023/06/09 13:42:58;;;;;;;6.03;3.30;;;;;;;;;;4972562;28;20027;-76
2023/06/09 13:45:25;;;;;;;7.07;3.85;;;;;;;;;;4972536;28;20041;-75
2023/06/09 13:47:54;;;;;;;5.60;3.15;;;;;;;;;;4971997;28;20042;-76
2023/06/09 13:50:22;;;;;;;5.47;3.55;;;;;;;;;;4970574;28;20073;-76
2023/06/09 13:52:48;;;;;;;5.75;3.65;;;;;;;;;;4971914;28;20055;-74
2023/06/09 13:55:14;;;;;;;9.65;3.67;;;;;;;;;;4972474;28;20034;-76
2023/06/09 13:57:42;;;;;;;12.68;3.58;;;;;;;;;;4987362;28;20551;-76
2023/06/09 14:00:11;;;;;;;6.68;3.72;;;;;;;;;;4972079;28;20042;-76
2023/06/09 14:02:40;;;;;;;9.20;3.25;;;;;;;;;;4973238;28;20206;-76
2023/06/09 14:05:08;;;;;;;6.55;3.67;;;;;;;;;;4975230;28;20081;-76
2023/06/09 14:07:37;;;;;;;7.05;3.15;;;;;;;;;;4976767;28;20026;-76
2023/06/09 14:10:04;;;;;;;5.65;3.30;;;;;;;;;;4976362;28;20125;-76
2023/06/09 14:12:30;;;;;;;9.30;3.10;;;;;;;;;;4974679;28;20027;-75
2023/06/09 14:14:56;;;;;;;7.35;3.17;;;;;;;;;;4975808;28;20089;-75
2023/06/09 14:17:22;;;;;;;5.57;3.20;;;;;;;;;;4973660;28;20050;-78
2023/06/09 14:19:48;;;;;;;7.25;3.28;;;;;;;;;;4988275;28;20053;-75
2023/06/09 14:22:14;;;;;;;4.75;3.13;;;;;;;;;;4973467;28;20067;-76
2023/06/09 14:24:40;;;;;;;5.22;3.25;;;;;;;;;;4973155;28;20051;-75
2023/06/09 14:27:06;;;;;;;7.15;3.08;;;;;;;;;;4987450;28;20030;-76
2023/06/09 14:29:33;;;;;;;13.68;3.88;;;;;;;;;;4986904;28;20034;-76
2023/06/09 14:32:00;;;;;;;6.63;3.10;;;;;;;;;;4972397;28;20027;-75
2023/06/09 14:34:26;;;;;;;8.10;3.10;;;;;;;;;;4973548;28;20035;-77
2023/06/09 14:36:51;;;;;;;5.40;2.80;;;;;;;;;;4972957;28;20034;-76
2023/06/09 14:39:18;;;;;;;7.93;3.50;;;;;;;;;;4972195;28;20458;-77
2023/06/09 14:41:47;;;;;;;6.00;3.13;;;;;;;;;;4971260;28;20023;-77
2023/06/09 14:44:20;;;;;;;5.93;3.22;;;;;;;;;;5003467;28;20125;-77
2023/06/09 14:46:46;;;;;;;6.05;3.60;;;;;;;;;;4983247;28;20085;-76
2023/06/09 14:49:11;;;;;;;8.90;3.50;;;;;;;;;;4973619;28;20030;-77
2023/06/09 14:51:39;;;;;;;7.20;3.00;;;;;;;;;;4972629;28;20075;-75